sensor_id;sensor_type;location;lat;lon;timestamp;temperature;humidity
4637;DHT22;2331;48.806;9.140;2022-12-20T00:01:19;6.10;1.00
4637;DHT22;2331;48.806;9.140;2022-12-20T00:03:48;6.20;1.00
4637;DHT22;2331;48.806;9.140;2022-12-20T00:06:16;6.20;1.00
4637;DHT22;2331;48.806;9.140;2022-12-20T00:08:45;6.20;1.00
4637;DHT22;2331;48.806;9.140;2022-12-20T00:11:12;6.20;1.00
4637;DHT22;2331;48.806;9.140;2022-12-20T00:13:39;6.20;1.00
4637;DHT22;2331;48.806;9.140;2022-12-20T00:16:08;6.20;1.00
4637;DHT22;2331;48.806;9.140;2022-12-20T00:18:36;6.20;1.00
4637;DHT22;2331;48.806;9.140;2022-12-20T00:21:03;6.20;1.00
4637;DHT22;2331;48.806;9.140;2022-12-20T00:23:30;6.20;1.00
4637;DHT22;2331;48.806;9.140;2022-12-20T00:26:03;6.20;1.00
4637;DHT22;2331;48.806;9.140;2022-12-20T00:28:30;6.10;1.00
4637;DHT22;2331;48.806;9.140;2022-12-20T00:30:57;6.10;1.00
4637;DHT22;2331;48.806;9.140;2022-12-20T00:33:24;6.20;1.00
4637;DHT22;2331;48.806;9.140;2022-12-20T00:35:51;6.20;1.00
4637;DHT22;2331;48.806;9.140;2022-12-20T00:38:17;6.20;1.00
4637;DHT22;2331;48.806;9.140;2022-12-20T00:40:44;6.20;1.00
4637;DHT22;2331;48.806;9.140;2022-12-20T00:43:12;6.20;1.00
4637;DHT22;2331;48.806;9.140;2022-12-20T00:45:39;6.30;1.00
4637;DHT22;2331;48.806;9.140;2022-12-20T00:48:06;6.20;1.00
4637;DHT22;2331;48.806;9.140;2022-12-20T00:50:32;6.20;1.00
4637;DHT22;2331;48.806;9.140;2022-12-20T00:52:59;6.20;1.00
4637;DHT22;2331;48.806;9.140;2022-12-20T00:55:26;6.20;1.00
4637;DHT22;2331;48.806;9.140;2022-12-20T00:57:52;6.30;1.00
4637;DHT22;2331;48.806;9.140;2022-12-20T01:00:21;6.20;1.00
4637;DHT22;2331;48.806;9.140;2022-12-20T01:02:47;6.20;1.00
4637;DHT22;2331;48.806;9.140;2022-12-20T01:05:14;6.20;1.00
4637;DHT22;2331;48.806;9.140;2022-12-20T01:07:41;6.20;1.00
4637;DHT22;2331;48.806;9.140;2022-12-20T01:10:09;6.20;1.00
4637;DHT22;2331;48.806;9.140;2022-12-20T01:12:36;6.20;1.00
4637;DHT22;2331;48.806;9.140;2022-12-20T01:15:04;6.30;1.00
4637;DHT22;2331;48.806;9.140;2022-12-20T01:17:32;6.30;1.00
4637;DHT22;2331;48.806;9.140;2022-12-20T01:19:59;6.30;1.00
4637;DHT22;2331;48.806;9.140;2022-12-20T01:22:26;6.30;1.00
4637;DHT22;2331;48.806;9.140;2022-12-20T01:24:52;6.20;1.00
4637;DHT22;2331;48.806;9.140;2022-12-20T01:27:19;6.30;1.00
4637;DHT22;2331;48.806;9.140;2022-12-20T01:29:46;6.30;1.00
4637;DHT22;2331;48.806;9.140;2022-12-20T01:32:13;6.20;1.00
4637;DHT22;2331;48.806;9.140;2022-12-20T01:34:41;6.20;1.00
4637;DHT22;2331;48.806;9.140;2022-12-20T01:37:08;6.20;1.00
4637;DHT22;2331;48.806;9.140;2022-12-20T01:39:35;6.20;1.00
4637;DHT22;2331;48.806;9.140;2022-12-20T01:42:01;6.20;1.00
4637;DHT22;2331;48.806;9.140;2022-12-20T01:44:51;6.20;1.00
4637;DHT22;2331;48.806;9.140;2022-12-20T01:47:20;6.10;1.00
4637;DHT22;2331;48.806;9.140;2022-12-20T01:49:51;6.20;1.00
4637;DHT22;2331;48.806;9.140;2022-12-20T01:52:25;6.10;1.00
4637;DHT22;2331;48.806;9.140;2022-12-20T01:54:55;6.20;1.00
4637;DHT22;2331;48.806;9.140;2022-12-20T01:57:26;6.10;1.00
4637;DHT22;2331;48.806;9.140;2022-12-20T01:59:55;6.10;1.00
4637;DHT22;2331;48.806;9.140;2022-12-20T02:02:22;6.10;1.00
4637;DHT22;2331;48.806;9.140;2022-12-20T02:04:50;6.10;1.00
4637;DHT22;2331;48.806;9.140;2022-12-20T02:07:19;6.10;1.00
4637;DHT22;2331;48.806;9.140;2022-12-20T02:09:48;6.10;1.00
4637;DHT22;2331;48.806;9.140;2022-12-20T02:12:18;6.10;1.00
4637;DHT22;2331;48.806;9.140;2022-12-20T02:14:56;6.10;1.00
4637;DHT22;2331;48.806;9.140;2022-12-20T02:17:32;6.00;1.00
4637;DHT22;2331;48.806;9.140;2022-12-20T02:20:20;6.00;1.00
4637;DHT22;2331;48.806;9.140;2022-12-20T02:23:15;6.10;1.00
4637;DHT22;2331;48.806;9.140;2022-12-20T02:25:57;6.10;1.00
4637;DHT22;2331;48.806;9.140;2022-12-20T02:28:42;6.10;1.00
4637;DHT22;2331;48.806;9.140;2022-12-20T02:31:19;6.10;1.00
4637;DHT22;2331;48.806;9.140;2022-12-20T02:33:47;6.10;1.00
4637;DHT22;2331;48.806;9.140;2022-12-20T02:36:16;6.10;1.00
4637;DHT22;2331;48.806;9.140;2022-12-20T02:38:43;6.10;1.00
4637;DHT22;2331;48.806;9.140;2022-12-20T02:41:13;6.10;1.00
4637;DHT22;2331;48.806;9.140;2022-12-20T02:43:45;6.10;1.00
4637;DHT22;2331;48.806;9.140;2022-12-20T02:46:34;6.10;1.00
4637;DHT22;2331;48.806;9.140;2022-12-20T02:49:04;6.10;1.00
4637;DHT22;2331;48.806;9.140;2022-12-20T02:51:33;6.10;1.00
4637;DHT22;2331;48.806;9.140;2022-12-20T02:54:00;6.10;1.00
4637;DHT22;2331;48.806;9.140;2022-12-20T02:56:31;6.10;1.00
4637;DHT22;2331;48.806;9.140;2022-12-20T02:59:02;6.20;1.00
4637;DHT22;2331;48.806;9.140;2022-12-20T03:01:35;6.20;1.00
4637;DHT22;2331;48.806;9.140;2022-12-20T03:04:03;6.20;1.00
4637;DHT22;2331;48.806;9.140;2022-12-20T03:06:31;6.20;1.00
4637;DHT22;2331;48.806;9.140;2022-12-20T03:08:58;6.10;1.00
4637;DHT22;2331;48.806;9.140;2022-12-20T03:11:25;6.10;1.00
4637;DHT22;2331;48.806;9.140;2022-12-20T03:13:51;6.10;1.00
4637;DHT22;2331;48.806;9.140;2022-12-20T03:16:18;6.20;1.00
4637;DHT22;2331;48.806;9.140;2022-12-20T03:18:46;6.10;1.00
4637;DHT22;2331;48.806;9.140;2022-12-20T03:21:13;6.20;1.00
4637;DHT22;2331;48.806;9.140;2022-12-20T03:23:40;6.20;1.00
4637;DHT22;2331;48.806;9.140;2022-12-20T03:26:06;6.20;1.00
4637;DHT22;2331;48.806;9.140;2022-12-20T03:28:33;6.20;1.00
4637;DHT22;2331;48.806;9.140;2022-12-20T03:31:00;6.30;1.00
4637;DHT22;2331;48.806;9.140;2022-12-20T03:33:26;6.30;1.00
4637;DHT22;2331;48.806;9.140;2022-12-20T03:35:54;6.30;1.00
4637;DHT22;2331;48.806;9.140;2022-12-20T03:38:21;6.30;1.00
4637;DHT22;2331;48.806;9.140;2022-12-20T03:40:48;6.30;1.00
4637;DHT22;2331;48.806;9.140;2022-12-20T03:43:14;6.40;1.00
4637;DHT22;2331;48.806;9.140;2022-12-20T03:45:41;6.40;1.00
4637;DHT22;2331;48.806;9.140;2022-12-20T03:48:08;6.50;1.00
4637;DHT22;2331;48.806;9.140;2022-12-20T03:50:35;6.50;1.00
4637;DHT22;2331;48.806;9.140;2022-12-20T03:53:03;6.50;1.00
4637;DHT22;2331;48.806;9.140;2022-12-20T03:55:29;6.50;1.00
4637;DHT22;2331;48.806;9.140;2022-12-20T03:57:56;6.50;1.00
4637;DHT22;2331;48.806;9.140;2022-12-20T04:00:23;6.50;1.00
4637;DHT22;2331;48.806;9.140;2022-12-20T04:02:50;6.60;1.00
4637;DHT22;2331;48.806;9.140;2022-12-20T04:05:17;6.60;1.00
4637;DHT22;2331;48.806;9.140;2022-12-20T04:07:44;6.60;1.00
4637;DHT22;2331;48.806;9.140;2022-12-20T04:10:12;6.60;1.00
4637;DHT22;2331;48.806;9.140;2022-12-20T04:12:39;6.60;1.00
4637;DHT22;2331;48.806;9.140;2022-12-20T04:15:07;6.60;1.00
4637;DHT22;2331;48.806;9.140;2022-12-20T04:17:33;6.50;1.00
4637;DHT22;2331;48.806;9.140;2022-12-20T04:20:00;6.50;1.00
4637;DHT22;2331;48.806;9.140;2022-12-20T04:22:43;6.40;1.00
4637;DHT22;2331;48.806;9.140;2022-12-20T04:25:10;6.40;1.00
4637;DHT22;2331;48.806;9.140;2022-12-20T04:27:38;6.40;1.00
4637;DHT22;2331;48.806;9.140;2022-12-20T04:30:06;6.40;1.00
4637;DHT22;2331;48.806;9.140;2022-12-20T04:32:33;6.40;1.00
4637;DHT22;2331;48.806;9.140;2022-12-20T04:35:00;6.40;1.00
4637;DHT22;2331;48.806;9.140;2022-12-20T04:37:26;6.40;1.00
4637;DHT22;2331;48.806;9.140;2022-12-20T04:39:53;6.40;1.00
4637;DHT22;2331;48.806;9.140;2022-12-20T04:42:21;6.30;1.00
4637;DHT22;2331;48.806;9.140;2022-12-20T04:44:49;6.30;1.00
4637;DHT22;2331;48.806;9.140;2022-12-20T04:47:15;6.40;1.00
4637;DHT22;2331;48.806;9.140;2022-12-20T04:49:42;6.40;1.00
4637;DHT22;2331;48.806;9.140;2022-12-20T04:52:09;6.40;1.00
4637;DHT22;2331;48.806;9.140;2022-12-20T04:54:53;6.40;1.00
4637;DHT22;2331;48.806;9.140;2022-12-20T04:57:20;6.50;1.00
4637;DHT22;2331;48.806;9.140;2022-12-20T04:59:46;6.50;1.00
4637;DHT22;2331;48.806;9.140;2022-12-20T05:02:14;6.50;1.00
4637;DHT22;2331;48.806;9.140;2022-12-20T05:04:41;6.50;1.00
4637;DHT22;2331;48.806;9.140;2022-12-20T05:07:08;6.50;1.00
4637;DHT22;2331;48.806;9.140;2022-12-20T05:09:34;6.50;1.00
4637;DHT22;2331;48.806;9.140;2022-12-20T05:12:01;6.50;1.00
4637;DHT22;2331;48.806;9.140;2022-12-20T05:14:28;6.60;1.00
4637;DHT22;2331;48.806;9.140;2022-12-20T05:16:55;6.60;1.00
4637;DHT22;2331;48.806;9.140;2022-12-20T05:19:23;6.60;1.00
4637;DHT22;2331;48.806;9.140;2022-12-20T05:21:49;6.60;1.00
4637;DHT22;2331;48.806;9.140;2022-12-20T05:24:30;6.60;1.00
4637;DHT22;2331;48.806;9.140;2022-12-20T05:27:16;6.60;1.00
4637;DHT22;2331;48.806;9.140;2022-12-20T05:29:42;6.60;1.00
4637;DHT22;2331;48.806;9.140;2022-12-20T05:32:09;6.60;1.00
4637;DHT22;2331;48.806;9.140;2022-12-20T05:34:37;6.60;1.00
4637;DHT22;2331;48.806;9.140;2022-12-20T05:37:07;6.60;1.00
4637;DHT22;2331;48.806;9.140;2022-12-20T05:39:34;6.60;1.00
4637;DHT22;2331;48.806;9.140;2022-12-20T05:42:00;6.70;1.00
4637;DHT22;2331;48.806;9.140;2022-12-20T05:44:27;6.70;1.00
4637;DHT22;2331;48.806;9.140;2022-12-20T05:46:54;6.70;1.00
4637;DHT22;2331;48.806;9.140;2022-12-20T05:49:21;6.60;1.00
4637;DHT22;2331;48.806;9.140;2022-12-20T05:51:49;6.60;1.00
4637;DHT22;2331;48.806;9.140;2022-12-20T05:54:16;6.70;1.00
4637;DHT22;2331;48.806;9.140;2022-12-20T05:56:42;6.60;1.00
4637;DHT22;2331;48.806;9.140;2022-12-20T05:59:09;6.60;1.00
4637;DHT22;2331;48.806;9.140;2022-12-20T06:01:36;6.60;1.00
4637;DHT22;2331;48.806;9.140;2022-12-20T06:04:02;6.60;1.00
4637;DHT22;2331;48.806;9.140;2022-12-20T06:06:29;6.70;1.00
4637;DHT22;2331;48.806;9.140;2022-12-20T06:08:57;6.70;1.00
4637;DHT22;2331;48.806;9.140;2022-12-20T06:11:24;6.60;1.00
4637;DHT22;2331;48.806;9.140;2022-12-20T06:13:51;6.60;1.00
4637;DHT22;2331;48.806;9.140;2022-12-20T06:16:18;6.60;1.00
4637;DHT22;2331;48.806;9.140;2022-12-20T06:18:46;6.70;1.00
4637;DHT22;2331;48.806;9.140;2022-12-20T06:21:13;6.70;1.00
4637;DHT22;2331;48.806;9.140;2022-12-20T06:23:39;6.70;1.00
4637;DHT22;2331;48.806;9.140;2022-12-20T06:26:08;6.70;1.00
4637;DHT22;2331;48.806;9.140;2022-12-20T06:28:35;6.70;1.00
4637;DHT22;2331;48.806;9.140;2022-12-20T06:31:07;6.70;1.00
4637;DHT22;2331;48.806;9.140;2022-12-20T06:33:35;6.70;1.00
4637;DHT22;2331;48.806;9.140;2022-12-20T06:36:02;6.60;1.00
4637;DHT22;2331;48.806;9.140;2022-12-20T06:38:29;6.60;1.00
4637;DHT22;2331;48.806;9.140;2022-12-20T06:40:56;6.70;1.00
4637;DHT22;2331;48.806;9.140;2022-12-20T06:43:24;6.70;1.00
4637;DHT22;2331;48.806;9.140;2022-12-20T06:45:51;6.70;1.00
4637;DHT22;2331;48.806;9.140;2022-12-20T06:48:17;6.70;1.00
4637;DHT22;2331;48.806;9.140;2022-12-20T06:50:47;6.60;1.00
4637;DHT22;2331;48.806;9.140;2022-12-20T06:53:13;6.60;1.00
4637;DHT22;2331;48.806;9.140;2022-12-20T06:55:41;6.60;1.00
4637;DHT22;2331;48.806;9.140;2022-12-20T06:58:07;6.60;1.00
4637;DHT22;2331;48.806;9.140;2022-12-20T07:00:35;6.60;1.00
4637;DHT22;2331;48.806;9.140;2022-12-20T07:03:02;6.70;1.00
4637;DHT22;2331;48.806;9.140;2022-12-20T07:05:29;6.70;1.00
4637;DHT22;2331;48.806;9.140;2022-12-20T07:07:56;6.70;1.00
4637;DHT22;2331;48.806;9.140;2022-12-20T07:10:22;6.70;1.00
4637;DHT22;2331;48.806;9.140;2022-12-20T07:12:51;6.70;1.00
4637;DHT22;2331;48.806;9.140;2022-12-20T07:15:17;6.70;1.00
4637;DHT22;2331;48.806;9.140;2022-12-20T07:17:47;6.60;1.00
4637;DHT22;2331;48.806;9.140;2022-12-20T07:20:15;6.70;1.00
4637;DHT22;2331;48.806;9.140;2022-12-20T07:22:42;6.60;1.00
4637;DHT22;2331;48.806;9.140;2022-12-20T07:25:09;6.60;1.00
4637;DHT22;2331;48.806;9.140;2022-12-20T07:27:36;6.60;1.00
4637;DHT22;2331;48.806;9.140;2022-12-20T07:30:03;6.60;1.00
4637;DHT22;2331;48.806;9.140;2022-12-20T07:32:30;6.60;1.00
4637;DHT22;2331;48.806;9.140;2022-12-20T07:34:58;6.60;1.00
4637;DHT22;2331;48.806;9.140;2022-12-20T07:37:28;6.70;1.00
4637;DHT22;2331;48.806;9.140;2022-12-20T07:39:55;6.70;1.00
4637;DHT22;2331;48.806;9.140;2022-12-20T07:42:21;6.70;1.00
4637;DHT22;2331;48.806;9.140;2022-12-20T07:44:48;6.70;1.00
4637;DHT22;2331;48.806;9.140;2022-12-20T07:47:15;6.70;1.00
4637;DHT22;2331;48.806;9.140;2022-12-20T07:49:42;6.70;1.00
4637;DHT22;2331;48.806;9.140;2022-12-20T07:52:11;6.70;1.00
4637;DHT22;2331;48.806;9.140;2022-12-20T07:54:42;6.70;1.00
4637;DHT22;2331;48.806;9.140;2022-12-20T07:57:14;6.70;1.00
4637;DHT22;2331;48.806;9.140;2022-12-20T07:59:46;6.70;1.00
4637;DHT22;2331;48.806;9.140;2022-12-20T08:02:16;6.70;1.00
4637;DHT22;2331;48.806;9.140;2022-12-20T08:04:44;6.70;1.00
4637;DHT22;2331;48.806;9.140;2022-12-20T08:07:13;6.80;1.00
4637;DHT22;2331;48.806;9.140;2022-12-20T08:09:41;6.80;1.00
4637;DHT22;2331;48.806;9.140;2022-12-20T08:12:09;6.80;1.00
4637;DHT22;2331;48.806;9.140;2022-12-20T08:14:37;6.80;1.00
4637;DHT22;2331;48.806;9.140;2022-12-20T08:17:04;6.80;1.00
4637;DHT22;2331;48.806;9.140;2022-12-20T08:19:30;6.80;1.00
4637;DHT22;2331;48.806;9.140;2022-12-20T08:21:57;6.90;1.00
4637;DHT22;2331;48.806;9.140;2022-12-20T08:24:25;6.90;1.00
4637;DHT22;2331;48.806;9.140;2022-12-20T08:26:52;6.90;1.00
4637;DHT22;2331;48.806;9.140;2022-12-20T08:29:18;6.90;1.00
4637;DHT22;2331;48.806;9.140;2022-12-20T08:31:45;6.90;1.00
4637;DHT22;2331;48.806;9.140;2022-12-20T08:34:12;6.90;1.00
4637;DHT22;2331;48.806;9.140;2022-12-20T08:36:39;6.80;1.00
4637;DHT22;2331;48.806;9.140;2022-12-20T08:39:06;6.80;1.00
4637;DHT22;2331;48.806;9.140;2022-12-20T08:41:34;6.80;1.00
4637;DHT22;2331;48.806;9.140;2022-12-20T08:44:02;6.80;1.00
4637;DHT22;2331;48.806;9.140;2022-12-20T08:46:29;6.90;1.00
4637;DHT22;2331;48.806;9.140;2022-12-20T08:48:56;6.90;1.00
4637;DHT22;2331;48.806;9.140;2022-12-20T08:51:22;7.00;1.00
4637;DHT22;2331;48.806;9.140;2022-12-20T08:53:50;7.00;1.00
4637;DHT22;2331;48.806;9.140;2022-12-20T08:56:17;7.00;1.00
4637;DHT22;2331;48.806;9.140;2022-12-20T08:58:46;7.00;1.00
4637;DHT22;2331;48.806;9.140;2022-12-20T09:01:14;7.10;1.00
4637;DHT22;2331;48.806;9.140;2022-12-20T09:03:41;7.10;1.00
4637;DHT22;2331;48.806;9.140;2022-12-20T09:06:11;7.10;1.00
4637;DHT22;2331;48.806;9.140;2022-12-20T09:08:39;7.20;1.00
4637;DHT22;2331;48.806;9.140;2022-12-20T09:11:07;7.20;1.00
4637;DHT22;2331;48.806;9.140;2022-12-20T09:13:34;7.20;1.00
4637;DHT22;2331;48.806;9.140;2022-12-20T09:16:03;7.30;1.00
4637;DHT22;2331;48.806;9.140;2022-12-20T09:18:30;7.30;1.00
4637;DHT22;2331;48.806;9.140;2022-12-20T09:20:58;7.30;1.00
4637;DHT22;2331;48.806;9.140;2022-12-20T09:23:25;7.40;1.00
4637;DHT22;2331;48.806;9.140;2022-12-20T09:25:52;7.30;1.00
4637;DHT22;2331;48.806;9.140;2022-12-20T09:28:19;7.40;1.00
4637;DHT22;2331;48.806;9.140;2022-12-20T09:30:46;7.40;1.00
4637;DHT22;2331;48.806;9.140;2022-12-20T09:33:14;7.40;1.00
4637;DHT22;2331;48.806;9.140;2022-12-20T09:35:44;7.40;1.00
4637;DHT22;2331;48.806;9.140;2022-12-20T09:38:10;7.50;1.00
4637;DHT22;2331;48.806;9.140;2022-12-20T09:40:37;7.50;1.00
4637;DHT22;2331;48.806;9.140;2022-12-20T09:43:08;7.50;1.00
4637;DHT22;2331;48.806;9.140;2022-12-20T09:45:36;7.60;1.00
4637;DHT22;2331;48.806;9.140;2022-12-20T09:48:03;7.60;1.00
4637;DHT22;2331;48.806;9.140;2022-12-20T09:50:41;7.70;1.00
4637;DHT22;2331;48.806;9.140;2022-12-20T09:53:22;7.70;1.00
4637;DHT22;2331;48.806;9.140;2022-12-20T09:55:54;7.70;1.00
4637;DHT22;2331;48.806;9.140;2022-12-20T09:58:34;7.90;1.00
4637;DHT22;2331;48.806;9.140;2022-12-20T10:01:13;8.00;1.00
4637;DHT22;2331;48.806;9.140;2022-12-20T10:03:41;8.10;1.00
4637;DHT22;2331;48.806;9.140;2022-12-20T10:06:15;8.20;1.00
4637;DHT22;2331;48.806;9.140;2022-12-20T10:08:50;8.30;1.00
4637;DHT22;2331;48.806;9.140;2022-12-20T10:11:45;8.40;1.00
4637;DHT22;2331;48.806;9.140;2022-12-20T10:14:27;8.60;1.00
4637;DHT22;2331;48.806;9.140;2022-12-20T10:16:59;8.70;1.00
4637;DHT22;2331;48.806;9.140;2022-12-20T10:19:39;8.80;1.00
4637;DHT22;2331;48.806;9.140;2022-12-20T10:22:15;8.80;1.00
4637;DHT22;2331;48.806;9.140;2022-12-20T10:24:47;8.80;1.00
4637;DHT22;2331;48.806;9.140;2022-12-20T10:27:18;8.90;1.00
4637;DHT22;2331;48.806;9.140;2022-12-20T10:29:46;8.90;1.00
4637;DHT22;2331;48.806;9.140;2022-12-20T10:32:15;9.00;1.00
4637;DHT22;2331;48.806;9.140;2022-12-20T10:34:49;9.00;1.00
4637;DHT22;2331;48.806;9.140;2022-12-20T10:37:18;9.00;1.00
4637;DHT22;2331;48.806;9.140;2022-12-20T10:39:47;9.00;1.00
4637;DHT22;2331;48.806;9.140;2022-12-20T10:42:27;8.90;1.00
4637;DHT22;2331;48.806;9.140;2022-12-20T10:44:56;8.90;1.00
4637;DHT22;2331;48.806;9.140;2022-12-20T10:47:33;8.90;1.00
4637;DHT22;2331;48.806;9.140;2022-12-20T10:50:14;9.00;1.00
4637;DHT22;2331;48.806;9.140;2022-12-20T10:52:43;9.00;1.00
4637;DHT22;2331;48.806;9.140;2022-12-20T10:55:32;9.00;1.00
4637;DHT22;2331;48.806;9.140;2022-12-20T10:58:02;9.00;1.00
4637;DHT22;2331;48.806;9.140;2022-12-20T11:00:31;9.00;1.00
4637;DHT22;2331;48.806;9.140;2022-12-20T11:03:06;9.10;1.00
4637;DHT22;2331;48.806;9.140;2022-12-20T11:05:35;9.10;1.00
4637;DHT22;2331;48.806;9.140;2022-12-20T11:08:13;9.10;1.00
4637;DHT22;2331;48.806;9.140;2022-12-20T11:10:41;9.10;1.00
4637;DHT22;2331;48.806;9.140;2022-12-20T11:13:20;9.10;1.00
4637;DHT22;2331;48.806;9.140;2022-12-20T11:15:48;9.10;1.00
4637;DHT22;2331;48.806;9.140;2022-12-20T11:18:21;9.10;1.00
4637;DHT22;2331;48.806;9.140;2022-12-20T11:20:53;9.10;1.00
4637;DHT22;2331;48.806;9.140;2022-12-20T11:23:28;9.10;1.00
4637;DHT22;2331;48.806;9.140;2022-12-20T11:26:10;9.20;1.00
4637;DHT22;2331;48.806;9.140;2022-12-20T11:28:58;9.10;1.00
4637;DHT22;2331;48.806;9.140;2022-12-20T11:31:36;9.20;1.00
4637;DHT22;2331;48.806;9.140;2022-12-20T11:34:16;9.20;1.00
4637;DHT22;2331;48.806;9.140;2022-12-20T11:36:58;9.30;1.00
4637;DHT22;2331;48.806;9.140;2022-12-20T11:39:33;9.30;1.00
4637;DHT22;2331;48.806;9.140;2022-12-20T11:42:10;9.40;1.00
4637;DHT22;2331;48.806;9.140;2022-12-20T11:44:48;9.40;1.00
4637;DHT22;2331;48.806;9.140;2022-12-20T11:47:35;9.40;1.00
4637;DHT22;2331;48.806;9.140;2022-12-20T11:50:16;9.40;1.00
4637;DHT22;2331;48.806;9.140;2022-12-20T11:52:48;9.40;1.00
4637;DHT22;2331;48.806;9.140;2022-12-20T11:55:20;9.40;1.00
4637;DHT22;2331;48.806;9.140;2022-12-20T11:57:55;9.40;1.00
4637;DHT22;2331;48.806;9.140;2022-12-20T12:00:23;9.40;1.00
4637;DHT22;2331;48.806;9.140;2022-12-20T12:02:54;9.40;1.00
4637;DHT22;2331;48.806;9.140;2022-12-20T12:05:25;9.50;1.00
4637;DHT22;2331;48.806;9.140;2022-12-20T12:07:57;9.50;1.00
4637;DHT22;2331;48.806;9.140;2022-12-20T12:10:30;9.40;1.00
4637;DHT22;2331;48.806;9.140;2022-12-20T12:13:05;9.50;1.00
4637;DHT22;2331;48.806;9.140;2022-12-20T12:15:36;9.50;1.00
4637;DHT22;2331;48.806;9.140;2022-12-20T12:18:15;9.40;1.00
4637;DHT22;2331;48.806;9.140;2022-12-20T12:20:49;9.50;1.00
4637;DHT22;2331;48.806;9.140;2022-12-20T12:23:22;9.40;1.00
4637;DHT22;2331;48.806;9.140;2022-12-20T12:25:51;9.40;1.00
4637;DHT22;2331;48.806;9.140;2022-12-20T12:28:20;9.40;1.00
4637;DHT22;2331;48.806;9.140;2022-12-20T12:30:52;9.40;1.00
4637;DHT22;2331;48.806;9.140;2022-12-20T12:33:25;9.50;1.00
4637;DHT22;2331;48.806;9.140;2022-12-20T12:36:09;9.50;1.00
4637;DHT22;2331;48.806;9.140;2022-12-20T12:38:59;9.60;1.00
4637;DHT22;2331;48.806;9.140;2022-12-20T12:41:52;9.60;1.00
4637;DHT22;2331;48.806;9.140;2022-12-20T12:44:39;9.60;1.00
4637;DHT22;2331;48.806;9.140;2022-12-20T12:47:13;9.60;1.00
4637;DHT22;2331;48.806;9.140;2022-12-20T12:49:42;9.60;1.00
4637;DHT22;2331;48.806;9.140;2022-12-20T12:52:27;9.70;1.00
4637;DHT22;2331;48.806;9.140;2022-12-20T12:54:55;9.70;1.00
4637;DHT22;2331;48.806;9.140;2022-12-20T12:57:23;9.70;1.00
4637;DHT22;2331;48.806;9.140;2022-12-20T12:59:50;9.70;1.00
4637;DHT22;2331;48.806;9.140;2022-12-20T13:02:34;9.70;1.00
4637;DHT22;2331;48.806;9.140;2022-12-20T13:05:31;9.60;1.00
4637;DHT22;2331;48.806;9.140;2022-12-20T13:07:58;9.70;1.00
4637;DHT22;2331;48.806;9.140;2022-12-20T13:13:33;9.80;1.00
4637;DHT22;2331;48.806;9.140;2022-12-20T13:16:27;9.90;1.00
4637;DHT22;2331;48.806;9.140;2022-12-20T13:19:09;9.80;1.00
4637;DHT22;2331;48.806;9.140;2022-12-20T13:21:38;9.90;1.00
4637;DHT22;2331;48.806;9.140;2022-12-20T13:24:39;9.90;1.00
4637;DHT22;2331;48.806;9.140;2022-12-20T13:27:27;9.90;1.00
4637;DHT22;2331;48.806;9.140;2022-12-20T13:32:54;9.90;1.00
4637;DHT22;2331;48.806;9.140;2022-12-20T13:35:29;9.90;1.00
4637;DHT22;2331;48.806;9.140;2022-12-20T13:38:00;10.00;1.00
4637;DHT22;2331;48.806;9.140;2022-12-20T13:40:34;10.00;1.00
4637;DHT22;2331;48.806;9.140;2022-12-20T13:43:19;9.90;1.00
4637;DHT22;2331;48.806;9.140;2022-12-20T13:45:54;9.80;1.00
4637;DHT22;2331;48.806;9.140;2022-12-20T13:48:32;9.70;1.00
4637;DHT22;2331;48.806;9.140;2022-12-20T13:51:01;9.80;1.00
4637;DHT22;2331;48.806;9.140;2022-12-20T13:53:28;9.80;1.00
4637;DHT22;2331;48.806;9.140;2022-12-20T13:55:56;9.90;1.00
4637;DHT22;2331;48.806;9.140;2022-12-20T13:58:25;9.90;1.00
4637;DHT22;2331;48.806;9.140;2022-12-20T14:01:03;9.90;1.00
4637;DHT22;2331;48.806;9.140;2022-12-20T14:03:31;9.90;1.00
4637;DHT22;2331;48.806;9.140;2022-12-20T14:06:01;9.90;1.00
4637;DHT22;2331;48.806;9.140;2022-12-20T14:08:30;9.90;1.00
4637;DHT22;2331;48.806;9.140;2022-12-20T14:11:07;9.90;1.00
4637;DHT22;2331;48.806;9.140;2022-12-20T14:13:34;9.90;1.00
4637;DHT22;2331;48.806;9.140;2022-12-20T14:16:10;10.00;1.00
4637;DHT22;2331;48.806;9.140;2022-12-20T14:18:38;10.00;1.00
4637;DHT22;2331;48.806;9.140;2022-12-20T14:21:06;10.10;1.00
4637;DHT22;2331;48.806;9.140;2022-12-20T14:23:36;10.10;1.00
4637;DHT22;2331;48.806;9.140;2022-12-20T14:26:06;10.00;1.00
4637;DHT22;2331;48.806;9.140;2022-12-20T14:28:38;10.00;1.00
4637;DHT22;2331;48.806;9.140;2022-12-20T14:31:21;10.00;1.00
4637;DHT22;2331;48.806;9.140;2022-12-20T14:33:48;10.00;1.00
4637;DHT22;2331;48.806;9.140;2022-12-20T14:36:18;10.00;1.00
4637;DHT22;2331;48.806;9.140;2022-12-20T14:38:46;10.00;1.00
4637;DHT22;2331;48.806;9.140;2022-12-20T14:41:31;10.00;1.00
4637;DHT22;2331;48.806;9.140;2022-12-20T14:44:01;10.00;1.00
4637;DHT22;2331;48.806;9.140;2022-12-20T14:46:30;10.00;1.00
4637;DHT22;2331;48.806;9.140;2022-12-20T14:49:17;10.00;1.00
4637;DHT22;2331;48.806;9.140;2022-12-20T14:51:46;10.00;1.00
4637;DHT22;2331;48.806;9.140;2022-12-20T14:54:17;10.00;1.00
4637;DHT22;2331;48.806;9.140;2022-12-20T14:56:45;10.00;1.00
4637;DHT22;2331;48.806;9.140;2022-12-20T14:59:14;10.00;1.00
4637;DHT22;2331;48.806;9.140;2022-12-20T15:01:43;10.00;1.00
4637;DHT22;2331;48.806;9.140;2022-12-20T15:04:22;10.00;1.00
4637;DHT22;2331;48.806;9.140;2022-12-20T15:06:49;10.00;1.00
4637;DHT22;2331;48.806;9.140;2022-12-20T15:09:17;10.00;1.00
4637;DHT22;2331;48.806;9.140;2022-12-20T15:11:45;10.00;1.00
4637;DHT22;2331;48.806;9.140;2022-12-20T15:14:30;10.00;1.00
4637;DHT22;2331;48.806;9.140;2022-12-20T15:17:01;10.00;1.00
4637;DHT22;2331;48.806;9.140;2022-12-20T15:19:28;9.90;1.00
4637;DHT22;2331;48.806;9.140;2022-12-20T15:21:55;10.00;1.00
4637;DHT22;2331;48.806;9.140;2022-12-20T15:24:24;10.00;1.00
4637;DHT22;2331;48.806;9.140;2022-12-20T15:26:51;9.90;1.00
4637;DHT22;2331;48.806;9.140;2022-12-20T15:29:20;9.90;1.00
4637;DHT22;2331;48.806;9.140;2022-12-20T15:31:48;9.90;1.00
4637;DHT22;2331;48.806;9.140;2022-12-20T15:34:21;9.90;1.00
4637;DHT22;2331;48.806;9.140;2022-12-20T15:36:50;9.90;1.00
4637;DHT22;2331;48.806;9.140;2022-12-20T15:39:17;9.90;1.00
4637;DHT22;2331;48.806;9.140;2022-12-20T15:41:47;9.90;1.00
4637;DHT22;2331;48.806;9.140;2022-12-20T15:44:16;9.90;1.00
4637;DHT22;2331;48.806;9.140;2022-12-20T15:46:44;9.80;1.00
4637;DHT22;2331;48.806;9.140;2022-12-20T15:49:13;9.80;1.00
4637;DHT22;2331;48.806;9.140;2022-12-20T15:51:42;9.70;1.00
4637;DHT22;2331;48.806;9.140;2022-12-20T15:54:22;9.70;1.00
4637;DHT22;2331;48.806;9.140;2022-12-20T15:56:51;9.70;1.00
4637;DHT22;2331;48.806;9.140;2022-12-20T15:59:18;9.70;1.00
4637;DHT22;2331;48.806;9.140;2022-12-20T16:01:45;9.70;1.00
4637;DHT22;2331;48.806;9.140;2022-12-20T16:04:14;9.70;1.00
4637;DHT22;2331;48.806;9.140;2022-12-20T16:06:43;9.70;1.00
4637;DHT22;2331;48.806;9.140;2022-12-20T16:09:10;9.80;1.00
4637;DHT22;2331;48.806;9.140;2022-12-20T16:11:37;9.80;1.00
4637;DHT22;2331;48.806;9.140;2022-12-20T16:14:03;9.90;1.00
4637;DHT22;2331;48.806;9.140;2022-12-20T16:16:33;9.90;1.00
4637;DHT22;2331;48.806;9.140;2022-12-20T16:19:00;10.00;1.00
4637;DHT22;2331;48.806;9.140;2022-12-20T16:21:30;10.00;1.00
4637;DHT22;2331;48.806;9.140;2022-12-20T16:23:59;10.10;1.00
4637;DHT22;2331;48.806;9.140;2022-12-20T16:26:26;10.00;1.00
4637;DHT22;2331;48.806;9.140;2022-12-20T16:28:54;10.00;1.00
4637;DHT22;2331;48.806;9.140;2022-12-20T16:31:23;10.00;1.00
4637;DHT22;2331;48.806;9.140;2022-12-20T16:33:50;10.00;1.00
4637;DHT22;2331;48.806;9.140;2022-12-20T16:36:17;10.00;1.00
4637;DHT22;2331;48.806;9.140;2022-12-20T16:38:44;10.00;1.00
4637;DHT22;2331;48.806;9.140;2022-12-20T16:41:14;9.90;1.00
4637;DHT22;2331;48.806;9.140;2022-12-20T16:43:41;9.90;1.00
4637;DHT22;2331;48.806;9.140;2022-12-20T16:46:10;9.90;1.00
4637;DHT22;2331;48.806;9.140;2022-12-20T16:48:38;9.90;1.00
4637;DHT22;2331;48.806;9.140;2022-12-20T16:51:20;9.90;1.00
4637;DHT22;2331;48.806;9.140;2022-12-20T16:53:48;9.90;1.00
4637;DHT22;2331;48.806;9.140;2022-12-20T16:56:16;9.90;1.00
4637;DHT22;2331;48.806;9.140;2022-12-20T16:58:43;9.90;1.00